createdAt,value
2017-07-11T00:00:17.606Z,0
2017-07-11T00:00:58.193Z,0
2017-07-11T00:01:38.758Z,0
2017-07-11T00:02:19.348Z,0
2017-07-11T00:02:59.930Z,0
2017-07-11T00:03:40.521Z,0
2017-07-11T00:04:21.172Z,0
2017-07-11T00:05:01.685Z,0
2017-07-11T00:05:42.297Z,0
2017-07-11T00:06:22.874Z,0
2017-07-11T00:07:03.454Z,0
2017-07-11T00:07:44.030Z,0
2017-07-11T00:08:24.644Z,0
2017-07-11T00:09:05.234Z,0
2017-07-11T00:09:45.809Z,0
2017-07-11T00:10:26.406Z,0
2017-07-11T00:11:07.035Z,0
2017-07-11T00:11:47.601Z,0
2017-07-11T00:12:28.239Z,0
2017-07-11T00:13:08.930Z,0
2017-07-11T00:13:49.515Z,0
2017-07-11T00:14:30.122Z,0
2017-07-11T00:15:10.699Z,0
2017-07-11T00:15:51.293Z,0
2017-07-11T00:16:31.891Z,0
2017-07-11T00:17:12.467Z,0
2017-07-11T00:17:53.037Z,0
2017-07-11T00:18:33.626Z,0
2017-07-11T00:19:14.193Z,0
2017-07-11T00:19:54.775Z,0
2017-07-11T00:20:35.342Z,0
2017-07-11T00:21:15.912Z,0
2017-07-11T00:21:56.505Z,0
2017-07-11T00:22:37.108Z,0
2017-07-11T00:23:17.677Z,0
2017-07-11T00:23:58.256Z,0
2017-07-11T00:24:38.817Z,0
2017-07-11T00:25:19.382Z,0
2017-07-11T00:25:59.996Z,0
2017-07-11T00:26:40.569Z,0
2017-07-11T00:27:21.136Z,0
2017-07-11T00:28:01.703Z,0
2017-07-11T00:28:42.272Z,0
2017-07-11T00:29:22.840Z,0
2017-07-11T00:30:03.412Z,0
2017-07-11T00:30:44.015Z,0
2017-07-11T00:31:24.647Z,0
2017-07-11T00:32:11.721Z,0
2017-07-11T00:32:52.305Z,0
2017-07-11T00:33:32.884Z,0
2017-07-11T00:34:13.454Z,0
2017-07-11T00:34:54.075Z,0
2017-07-11T00:35:34.645Z,0
2017-07-11T00:36:15.249Z,0
2017-07-11T00:36:55.834Z,0
2017-07-11T00:37:36.395Z,0
2017-07-11T00:38:16.949Z,0
2017-07-11T00:38:57.528Z,0
2017-07-11T00:39:38.099Z,0
2017-07-11T00:40:18.691Z,0
2017-07-11T00:40:59.261Z,0
2017-07-11T00:41:39.850Z,0
2017-07-11T00:42:20.432Z,0
2017-07-11T00:43:00.997Z,0
2017-07-11T00:43:41.590Z,0
2017-07-11T00:44:22.174Z,0
2017-07-11T00:45:02.726Z,0
2017-07-11T00:45:43.325Z,0
2017-07-11T00:46:23.906Z,0
2017-07-11T00:47:04.485Z,0
2017-07-11T00:47:45.051Z,0
2017-07-11T00:48:25.660Z,0
2017-07-11T00:49:06.279Z,0
2017-07-11T00:49:46.857Z,0
2017-07-11T00:50:27.428Z,0
2017-07-11T00:51:07.991Z,0
2017-07-11T00:51:48.559Z,0
2017-07-11T00:52:29.148Z,0
2017-07-11T00:53:09.716Z,0
2017-07-11T00:53:50.333Z,0
2017-07-11T00:54:30.906Z,0
2017-07-11T00:55:11.469Z,0
2017-07-11T00:55:52.041Z,0
2017-07-11T00:56:32.616Z,0
2017-07-11T00:57:13.182Z,0
2017-07-11T00:57:53.759Z,0
2017-07-11T00:58:34.328Z,0
2017-07-11T00:59:14.917Z,0
2017-07-11T00:59:55.519Z,0
2017-07-11T01:00:36.101Z,0
2017-07-11T01:01:16.746Z,0
2017-07-11T01:01:57.279Z,0
2017-07-11T01:02:37.844Z,0
2017-07-11T01:03:18.409Z,0
2017-07-11T01:03:58.981Z,0
2017-07-11T01:04:39.570Z,0
2017-07-11T01:05:20.166Z,0
2017-07-11T01:06:00.754Z,0
2017-07-11T01:06:41.330Z,0
2017-07-11T01:07:21.918Z,0
2017-07-11T01:08:02.508Z,0
2017-07-11T01:08:43.116Z,0
2017-07-11T01:09:23.691Z,0
2017-07-11T01:10:04.265Z,0
2017-07-11T01:10:44.868Z,0
2017-07-11T01:11:25.430Z,0
2017-07-11T01:12:06.010Z,0
2017-07-11T01:12:46.607Z,0
2017-07-11T01:13:27.174Z,0
2017-07-11T01:14:07.773Z,0
2017-07-11T01:14:48.382Z,0
2017-07-11T01:15:28.949Z,0
2017-07-11T01:16:09.526Z,0
2017-07-11T01:16:50.115Z,0
2017-07-11T01:17:30.744Z,0
2017-07-11T01:18:11.321Z,0
2017-07-11T01:18:51.905Z,0
2017-07-11T01:19:32.496Z,0
2017-07-11T01:20:13.070Z,0
2017-07-11T01:20:53.683Z,0
2017-07-11T01:21:34.258Z,0
2017-07-11T01:22:14.886Z,0
2017-07-11T01:22:55.417Z,0
2017-07-11T01:23:36.000Z,0
2017-07-11T01:24:16.607Z,0
2017-07-11T01:24:57.204Z,0
2017-07-11T01:25:37.798Z,0
2017-07-11T01:26:18.371Z,0
2017-07-11T01:26:58.945Z,0
2017-07-11T01:27:39.558Z,0
2017-07-11T01:28:20.143Z,0
2017-07-11T01:29:00.702Z,0
2017-07-11T01:29:41.278Z,0
2017-07-11T01:30:21.866Z,0
2017-07-11T01:31:02.491Z,0
2017-07-11T01:31:43.067Z,0
2017-07-11T01:32:23.693Z,0
2017-07-11T01:33:04.294Z,0
2017-07-11T01:33:44.887Z,0
2017-07-11T01:34:25.465Z,0
2017-07-11T01:35:06.042Z,0
2017-07-11T01:35:46.654Z,0
2017-07-11T01:36:27.232Z,0
2017-07-11T01:37:07.812Z,0
2017-07-11T01:37:48.490Z,0
2017-07-11T01:38:29.141Z,0
2017-07-11T01:39:09.737Z,0
2017-07-11T01:39:50.390Z,0
2017-07-11T01:40:30.973Z,0
2017-07-11T01:41:11.550Z,0
2017-07-11T01:41:52.211Z,0
2017-07-11T01:42:32.816Z,0
2017-07-11T01:43:13.385Z,0
2017-07-11T01:43:53.970Z,0
2017-07-11T01:44:34.533Z,0
2017-07-11T01:45:15.108Z,0
2017-07-11T01:45:55.685Z,0
2017-07-11T01:46:36.257Z,0
2017-07-11T01:47:16.867Z,0
2017-07-11T01:47:57.488Z,0
2017-07-11T01:48:38.075Z,0
2017-07-11T01:49:18.644Z,0
2017-07-11T01:49:59.223Z,0
2017-07-11T01:50:39.832Z,0
2017-07-11T01:51:20.406Z,0
2017-07-11T01:52:00.986Z,0
2017-07-11T01:52:41.561Z,0
2017-07-11T01:53:22.152Z,0
2017-07-11T01:54:02.723Z,0
2017-07-11T01:54:43.318Z,0
2017-07-11T01:55:23.906Z,0
2017-07-11T01:56:04.501Z,0
2017-07-11T01:56:45.114Z,0
2017-07-11T01:57:25.701Z,0
2017-07-11T01:58:06.301Z,0
2017-07-11T01:58:46.891Z,0
2017-07-11T01:59:27.474Z,0
2017-07-11T02:00:08.061Z,0
2017-07-11T02:00:48.658Z,0
2017-07-11T02:01:29.246Z,0
2017-07-11T02:02:09.829Z,0
2017-07-11T02:02:50.407Z,0
2017-07-11T02:03:30.987Z,0
2017-07-11T02:04:11.565Z,0
2017-07-11T02:04:52.133Z,0
2017-07-11T02:05:32.703Z,0
2017-07-11T02:06:13.295Z,0
2017-07-11T02:06:53.852Z,0
2017-07-11T02:07:34.424Z,0
2017-07-11T02:08:15.009Z,0
2017-07-11T02:08:55.588Z,0
2017-07-11T02:09:36.151Z,0
2017-07-11T02:10:16.731Z,0
2017-07-11T02:10:57.313Z,0
2017-07-11T02:11:37.886Z,0
2017-07-11T02:12:18.479Z,0
2017-07-11T02:12:59.054Z,0
2017-07-11T02:13:39.647Z,0
2017-07-11T02:14:20.223Z,0
2017-07-11T02:15:00.798Z,0
2017-07-11T02:15:41.906Z,0
2017-07-11T02:16:22.413Z,0
2017-07-11T02:17:02.934Z,0
2017-07-11T02:17:43.498Z,0
2017-07-11T02:18:24.100Z,0
2017-07-11T02:19:04.698Z,0
2017-07-11T02:19:45.282Z,0
2017-07-11T02:20:25.856Z,0
2017-07-11T02:21:06.450Z,0
2017-07-11T02:21:47.023Z,0
2017-07-11T02:22:27.617Z,0
2017-07-11T02:23:08.176Z,0
2017-07-11T02:23:48.753Z,0
2017-07-11T02:24:29.320Z,0
2017-07-11T02:25:09.892Z,0
2017-07-11T02:25:50.468Z,0
2017-07-11T02:26:31.033Z,0
2017-07-11T02:27:11.748Z,0
2017-07-11T02:27:52.327Z,0
2017-07-11T02:28:32.908Z,4
2017-07-11T02:29:13.667Z,4
2017-07-11T02:29:54.238Z,4
2017-07-11T02:30:34.807Z,4
2017-07-11T02:31:15.377Z,4
2017-07-11T02:31:56.143Z,4
2017-07-11T02:32:36.725Z,4
2017-07-11T02:33:17.300Z,0
2017-07-11T02:33:58.063Z,0
2017-07-11T02:34:38.667Z,4
2017-07-11T02:35:19.245Z,8
2017-07-11T02:35:59.878Z,8
2017-07-11T02:36:40.448Z,4
2017-07-11T02:37:21.048Z,8
2017-07-11T02:38:01.636Z,8
2017-07-11T02:38:42.647Z,8
2017-07-11T02:39:23.235Z,4
2017-07-11T02:40:03.797Z,8
2017-07-11T02:40:44.362Z,8
2017-07-11T02:41:24.924Z,8
2017-07-11T02:42:05.500Z,8
2017-07-11T02:42:46.084Z,8
2017-07-11T02:43:26.768Z,12
2017-07-11T02:44:07.377Z,12
2017-07-11T02:44:47.957Z,16
2017-07-11T02:45:28.545Z,20
2017-07-11T02:46:09.117Z,24
2017-07-11T02:46:49.707Z,28
2017-07-11T02:47:30.281Z,28
2017-07-11T02:48:10.868Z,32
2017-07-11T02:48:51.834Z,40
2017-07-11T02:49:32.450Z,44
2017-07-11T02:50:13.084Z,44
2017-07-11T02:50:53.661Z,48
2017-07-11T02:51:34.230Z,52
2017-07-11T02:52:14.810Z,56
2017-07-11T02:52:55.392Z,60
2017-07-11T02:53:36.045Z,60
2017-07-11T02:54:16.563Z,60
2017-07-11T02:54:57.161Z,64
2017-07-11T02:55:37.723Z,68
2017-07-11T02:56:18.543Z,68
2017-07-11T02:56:59.149Z,72
2017-07-11T02:57:39.723Z,72
2017-07-11T02:58:20.322Z,76
2017-07-11T02:59:00.890Z,80
2017-07-11T02:59:41.513Z,88
2017-07-11T03:00:22.082Z,84
2017-07-11T03:01:02.668Z,88
2017-07-11T03:01:43.239Z,92
2017-07-11T03:02:23.820Z,100
2017-07-11T03:03:04.404Z,100
2017-07-11T03:03:44.964Z,104
2017-07-11T03:04:25.554Z,112
2017-07-11T03:05:06.117Z,120
2017-07-11T03:05:46.700Z,124
2017-07-11T03:06:27.286Z,128
2017-07-11T03:07:07.860Z,136
2017-07-11T03:07:48.426Z,144
2017-07-11T03:08:28.991Z,152
2017-07-11T03:09:09.585Z,156
2017-07-11T03:09:50.166Z,172
2017-07-11T03:10:30.747Z,176
2017-07-11T03:11:11.340Z,184
2017-07-11T03:11:51.911Z,192
2017-07-11T03:12:32.772Z,204
2017-07-11T03:13:13.339Z,204
2017-07-11T03:13:53.904Z,224
2017-07-11T03:14:34.488Z,220
2017-07-11T03:15:15.055Z,212
2017-07-11T03:15:55.646Z,228
2017-07-11T03:16:36.198Z,240
2017-07-11T03:17:16.760Z,252
2017-07-11T03:17:57.360Z,260
2017-07-11T03:18:38.265Z,260
2017-07-11T03:19:18.844Z,260
2017-07-11T03:19:59.416Z,260
2017-07-11T03:20:40.116Z,272
2017-07-11T03:21:20.688Z,272
2017-07-11T03:22:01.268Z,260
2017-07-11T03:22:41.832Z,284
2017-07-11T03:23:22.396Z,292
2017-07-11T03:24:02.972Z,272
2017-07-11T03:24:43.550Z,292
2017-07-11T03:25:24.142Z,276
2017-07-11T03:26:04.719Z,276
2017-07-11T03:26:45.367Z,268
2017-07-11T03:27:25.871Z,292
2017-07-11T03:28:06.485Z,292
2017-07-11T03:28:47.054Z,340
2017-07-11T03:29:27.723Z,364
2017-07-11T03:30:08.333Z,340
2017-07-11T03:30:48.928Z,300
2017-07-11T03:31:29.494Z,316
2017-07-11T03:32:10.076Z,376
2017-07-11T03:32:50.683Z,356
2017-07-11T03:33:31.230Z,380
2017-07-11T03:34:11.823Z,356
2017-07-11T03:34:52.392Z,356
2017-07-11T03:35:32.994Z,380
2017-07-11T03:36:13.580Z,400
2017-07-11T03:36:54.145Z,436
2017-07-11T03:37:34.706Z,428
2017-07-11T03:38:15.277Z,484
2017-07-11T03:38:55.853Z,552
2017-07-11T03:39:36.471Z,600
2017-07-11T03:40:17.056Z,560
2017-07-11T03:40:57.668Z,540
2017-07-11T03:41:38.277Z,580
2017-07-11T03:42:18.846Z,532
2017-07-11T03:42:59.418Z,628
2017-07-11T03:43:40.038Z,616
2017-07-11T03:44:20.615Z,544
2017-07-11T03:45:01.172Z,648
2017-07-11T03:45:41.742Z,620
2017-07-11T03:46:22.301Z,660
2017-07-11T03:47:02.866Z,724
2017-07-11T03:47:43.438Z,736
2017-07-11T03:48:24.084Z,736
2017-07-11T03:49:04.615Z,808
2017-07-11T03:49:45.188Z,780
2017-07-11T03:50:25.752Z,780
2017-07-11T03:51:06.324Z,804
2017-07-11T03:51:46.900Z,820
2017-07-11T03:52:27.479Z,828
2017-07-11T03:53:08.046Z,836
2017-07-11T03:53:48.633Z,836
2017-07-11T03:54:29.197Z,752
2017-07-11T03:55:09.768Z,748
2017-07-11T03:55:50.320Z,788
2017-07-11T03:56:30.889Z,832
2017-07-11T03:57:11.510Z,768
2017-07-11T03:57:52.083Z,800
2017-07-11T03:58:32.660Z,792
2017-07-11T03:59:13.346Z,784
2017-07-11T03:59:53.928Z,620
2017-07-11T04:00:34.517Z,620
2017-07-11T04:01:15.123Z,672
2017-07-11T04:01:55.690Z,692
2017-07-11T04:02:36.260Z,700
2017-07-11T04:03:16.847Z,656
2017-07-11T04:03:57.499Z,640
2017-07-11T04:04:38.123Z,660
2017-07-11T04:05:18.695Z,820
2017-07-11T04:05:59.290Z,816
2017-07-11T04:06:39.932Z,732
2017-07-11T04:07:20.489Z,792
2017-07-11T04:08:01.059Z,864
2017-07-11T04:08:41.639Z,908
2017-07-11T04:09:22.300Z,960
2017-07-11T04:10:02.875Z,952
2017-07-11T04:10:43.448Z,1028
2017-07-11T04:11:24.021Z,928
2017-07-11T04:12:04.598Z,836
2017-07-11T04:12:45.193Z,896
2017-07-11T04:13:25.764Z,912
2017-07-11T04:14:06.329Z,1048
2017-07-11T04:14:47.070Z,1120
2017-07-11T04:15:27.677Z,1056
2017-07-11T04:16:08.241Z,996
2017-07-11T04:16:48.812Z,1092
2017-07-11T04:17:29.410Z,1128
2017-07-11T04:18:09.983Z,1228
2017-07-11T04:18:50.544Z,1308
2017-07-11T04:19:31.106Z,1360
2017-07-11T04:20:11.660Z,1496
2017-07-11T04:20:52.246Z,1620
2017-07-11T04:21:32.842Z,1732
2017-07-11T04:22:13.422Z,1720
2017-07-11T04:22:54.064Z,1712
2017-07-11T04:23:34.661Z,1760
2017-07-11T04:24:15.239Z,1852
2017-07-11T04:24:55.797Z,1964
2017-07-11T04:25:36.362Z,2140
2017-07-11T04:26:16.935Z,2124
2017-07-11T04:26:57.495Z,2064
2017-07-11T04:27:38.223Z,2100
2017-07-11T04:28:18.802Z,2152
2017-07-11T04:28:59.363Z,2104
2017-07-11T04:29:39.935Z,2240
2017-07-11T04:30:20.496Z,2336
2017-07-11T04:31:01.060Z,2248
2017-07-11T04:31:41.641Z,2380
2017-07-11T04:32:22.205Z,2536
2017-07-11T04:33:02.785Z,2468
2017-07-11T04:33:43.349Z,2604
2017-07-11T04:34:23.917Z,2780
2017-07-11T04:35:04.503Z,2684
2017-07-11T04:35:45.122Z,2500
2017-07-11T04:36:25.706Z,2140
2017-07-11T04:37:06.305Z,1836
2017-07-11T04:37:46.869Z,1912
2017-07-11T04:38:27.426Z,2140
2017-07-11T04:39:08.944Z,2520
2017-07-11T04:39:49.520Z,2732
2017-07-11T04:40:30.091Z,2724
2017-07-11T04:41:10.705Z,2788
2017-07-11T04:41:51.242Z,2972
2017-07-11T04:42:31.913Z,3088
2017-07-11T04:43:12.471Z,3216
2017-07-11T04:43:53.046Z,3304
2017-07-11T04:44:33.614Z,3364
2017-07-11T04:45:14.203Z,3268
2017-07-11T04:45:54.798Z,3204
2017-07-11T04:46:35.369Z,3196
2017-07-11T04:47:15.937Z,3288
2017-07-11T04:47:56.505Z,3320
2017-07-11T04:48:37.087Z,3276
2017-07-11T04:49:17.663Z,2904
2017-07-11T04:49:58.258Z,2868
2017-07-11T04:50:38.849Z,2788
2017-07-11T04:51:19.432Z,2764
2017-07-11T04:51:59.996Z,2720
2017-07-11T04:52:40.591Z,2444
2017-07-11T04:53:21.175Z,2376
2017-07-11T04:54:01.772Z,2464
2017-07-11T04:54:42.342Z,2440
2017-07-11T04:55:22.900Z,2492
2017-07-11T04:56:03.483Z,2636
2017-07-11T04:56:44.047Z,2492
2017-07-11T04:57:24.639Z,2308
2017-07-11T04:58:05.404Z,2628
2017-07-11T04:58:45.835Z,3004
2017-07-11T04:59:26.412Z,2980
2017-07-11T05:00:06.991Z,2776
2017-07-11T05:00:47.715Z,2556
2017-07-11T05:01:28.332Z,2548
2017-07-11T05:02:08.905Z,2728
2017-07-11T05:02:49.478Z,2992
2017-07-11T05:03:30.077Z,3044
2017-07-11T05:04:10.707Z,3064
2017-07-11T05:04:51.309Z,3160
2017-07-11T05:05:31.950Z,3056
2017-07-11T05:06:12.496Z,2920
2017-07-11T05:06:53.096Z,2904
2017-07-11T05:07:33.658Z,2912
2017-07-11T05:08:14.258Z,3092
2017-07-11T05:08:54.853Z,3056
2017-07-11T05:09:35.420Z,3032
2017-07-11T05:10:16.005Z,3368
2017-07-11T05:10:56.803Z,3704
2017-07-11T05:12:54.539Z,3824
2017-07-11T05:13:35.137Z,3584
2017-07-11T05:14:15.711Z,3208
2017-07-11T05:14:56.274Z,3084
2017-07-11T05:15:36.859Z,3160
2017-07-11T05:16:17.415Z,3056
2017-07-11T05:16:57.988Z,3004
2017-07-11T05:17:38.556Z,3112
2017-07-11T05:18:19.127Z,3476
2017-07-11T05:18:59.870Z,3732
2017-07-11T05:19:40.587Z,3932
2017-07-11T05:20:21.320Z,3948
2017-07-11T05:21:01.903Z,3800
2017-07-11T05:21:42.502Z,3688
2017-07-11T05:22:23.085Z,3852
2017-07-11T05:23:03.658Z,3844
2017-07-11T05:23:44.233Z,3996
2017-07-11T05:24:24.818Z,4144
2017-07-11T05:25:05.379Z,4160
2017-07-11T05:25:45.966Z,4232
2017-07-11T05:26:26.521Z,4360
2017-07-11T05:27:07.079Z,4264
2017-07-11T05:27:47.665Z,4304
2017-07-11T05:28:28.222Z,4292
2017-07-11T05:29:08.795Z,4300
2017-07-11T05:29:49.364Z,4168
2017-07-11T05:30:29.937Z,4332
2017-07-11T05:31:10.529Z,4300
2017-07-11T05:31:51.104Z,4476
2017-07-11T05:32:31.671Z,4696
2017-07-11T05:33:12.246Z,4932
2017-07-11T05:33:52.822Z,5196
2017-07-11T05:34:33.399Z,5360
2017-07-11T05:35:14.016Z,5272
2017-07-11T05:35:54.654Z,5796
2017-07-11T05:36:35.232Z,6052
2017-07-11T05:37:15.829Z,6244
2017-07-11T05:37:56.449Z,6396
2017-07-11T05:38:37.024Z,6552
2017-07-11T05:39:17.587Z,6908
2017-07-11T05:39:58.183Z,7028
2017-07-11T05:40:38.755Z,6924
2017-07-11T05:41:19.319Z,7492
2017-07-11T05:41:59.902Z,7884
2017-07-11T05:42:40.506Z,8776
2017-07-11T05:43:21.114Z,8676
2017-07-11T05:44:01.720Z,8296
2017-07-11T05:44:42.278Z,7852
2017-07-11T05:45:22.843Z,7596
2017-07-11T05:46:03.402Z,7756
2017-07-11T05:46:43.982Z,7904
2017-07-11T05:47:24.551Z,8756
2017-07-11T05:48:05.116Z,8588
2017-07-11T05:48:45.696Z,9260
2017-07-11T05:49:26.283Z,9684
2017-07-11T05:50:06.848Z,9772
2017-07-11T05:50:47.429Z,10540
2017-07-11T05:51:28.025Z,11028
2017-07-11T05:52:08.635Z,11188
2017-07-11T05:52:49.209Z,12500
2017-07-11T05:53:29.831Z,14268
2017-07-11T05:54:10.533Z,14188
2017-07-11T05:54:51.093Z,16032
2017-07-11T05:55:31.674Z,15540
2017-07-11T05:56:12.254Z,19904
2017-07-11T05:56:53.107Z,19840
2017-07-11T05:57:33.668Z,18016
2017-07-11T05:58:14.254Z,20224
2017-07-11T05:58:54.818Z,20096
2017-07-11T05:59:35.386Z,20896
2017-07-11T06:00:17.029Z,23168
2017-07-11T06:00:58.447Z,25888
2017-07-11T06:01:39.101Z,26752
2017-07-11T06:02:19.732Z,24672
2017-07-11T06:03:00.348Z,23744
2017-07-11T06:03:41.047Z,21312
2017-07-11T06:04:21.622Z,25248
2017-07-11T06:05:02.242Z,26368
2017-07-11T06:05:42.810Z,24928
2017-07-11T06:06:23.937Z,25248
2017-07-11T06:07:04.896Z,23648
2017-07-11T06:07:45.653Z,22048
2017-07-11T06:08:26.269Z,19872
2017-07-11T06:09:06.899Z,20992
2017-07-11T06:09:47.508Z,21760
2017-07-11T06:10:28.079Z,20960
2017-07-11T06:11:08.693Z,21376
2017-07-11T06:11:49.272Z,25120
2017-07-11T06:12:29.874Z,25696
2017-07-11T06:13:11.188Z,11872
2017-07-11T06:13:51.798Z,10708
2017-07-11T06:14:32.382Z,8848
2017-07-11T06:15:13.021Z,7600
2017-07-11T06:15:53.698Z,7272
2017-07-11T06:16:34.328Z,7128
2017-07-11T06:17:14.912Z,6980
2017-07-11T06:17:55.530Z,6800
2017-07-11T06:18:36.124Z,7672
2017-07-11T06:19:16.718Z,8376
2017-07-11T06:19:57.310Z,8676
2017-07-11T06:20:37.893Z,9052
2017-07-11T06:21:18.464Z,8392
2017-07-11T06:21:59.045Z,8036
2017-07-11T06:22:39.636Z,8124
2017-07-11T06:23:20.290Z,8576
2017-07-11T06:24:00.860Z,9892
2017-07-11T06:24:41.448Z,10488
2017-07-11T06:25:22.040Z,9744
2017-07-11T06:26:02.590Z,9612
2017-07-11T06:26:43.178Z,9748
2017-07-11T06:27:23.759Z,10828
2017-07-11T06:28:04.338Z,16768
2017-07-11T06:28:44.915Z,23904
2017-07-11T06:29:25.496Z,22720
2017-07-11T06:30:06.087Z,22432
2017-07-11T06:30:46.754Z,23232
2017-07-11T06:31:27.315Z,25184
2017-07-11T06:32:08.009Z,21504
2017-07-11T06:32:48.609Z,20480
2017-07-11T06:33:29.194Z,23424
2017-07-11T06:34:09.778Z,24032
2017-07-11T06:34:50.343Z,25760
2017-07-11T06:35:30.962Z,26784
2017-07-11T06:36:11.572Z,27520
2017-07-11T06:36:52.148Z,30048
2017-07-11T06:37:32.724Z,32352
2017-07-11T06:38:13.284Z,35040
2017-07-11T06:38:53.867Z,35936
2017-07-11T06:39:34.446Z,18688
2017-07-11T06:40:15.065Z,20448
2017-07-11T06:40:55.641Z,26176
2017-07-11T06:41:36.210Z,28320
2017-07-11T06:42:16.781Z,28128
2017-07-11T06:42:57.363Z,28800
2017-07-11T06:43:38.005Z,24128
2017-07-11T06:44:18.589Z,33376
2017-07-11T06:44:59.161Z,25216
2017-07-11T06:45:39.732Z,35168
2017-07-11T06:46:20.337Z,37632
2017-07-11T06:47:00.913Z,36032
2017-07-11T06:47:41.492Z,37280
2017-07-11T06:48:22.094Z,37440
2017-07-11T06:49:02.811Z,31648
2017-07-11T06:49:43.474Z,34656
2017-07-11T06:50:24.032Z,34496
2017-07-11T06:51:04.581Z,33184
2017-07-11T06:51:45.172Z,30848
2017-07-11T06:52:25.765Z,24768
2017-07-11T06:53:06.348Z,32896
2017-07-11T06:53:46.922Z,33952
2017-07-11T06:54:27.492Z,33376
2017-07-11T06:55:08.098Z,35424
2017-07-11T06:55:48.674Z,34336
2017-07-11T06:56:29.247Z,32000
2017-07-11T06:57:09.872Z,32256
2017-07-11T06:57:50.476Z,27840
2017-07-11T06:58:31.130Z,33920
2017-07-11T06:59:11.677Z,33568
2017-07-11T06:59:52.269Z,32416
2017-07-11T07:00:32.848Z,29920
2017-07-11T07:01:13.419Z,28288
2017-07-11T07:01:54.016Z,32000
2017-07-11T07:02:34.592Z,32736
2017-07-11T07:03:15.164Z,31520
2017-07-11T07:03:55.750Z,29664
2017-07-11T07:04:36.323Z,29280
2017-07-11T07:05:16.915Z,28352
2017-07-11T07:05:57.503Z,28672
2017-07-11T07:06:38.251Z,32288
2017-07-11T07:07:18.846Z,34240
2017-07-11T07:07:59.419Z,34464
2017-07-11T07:08:40.009Z,32064
2017-07-11T07:09:20.587Z,23424
2017-07-11T07:10:01.201Z,23424
2017-07-11T07:10:41.746Z,25184
2017-07-11T07:11:22.387Z,23104
2017-07-11T07:12:02.959Z,26720
2017-07-11T07:12:43.534Z,19744
2017-07-11T07:13:24.108Z,20576
2017-07-11T07:14:04.722Z,24512
2017-07-11T07:14:45.306Z,36384
2017-07-11T07:15:25.907Z,40992
2017-07-11T07:16:06.472Z,41248
2017-07-11T07:16:47.074Z,47776
2017-07-11T07:17:27.656Z,51680
2017-07-11T07:18:08.230Z,50080
2017-07-11T07:18:48.799Z,42464
2017-07-11T07:19:29.375Z,55328
2017-07-11T07:20:09.950Z,50112
2017-07-11T07:20:50.549Z,23104
2017-07-11T07:21:31.136Z,19168
2017-07-11T07:22:11.721Z,59808
2017-07-11T07:22:52.470Z,68960
2017-07-11T07:23:33.325Z,71552
2017-07-11T07:24:13.904Z,71008
2017-07-11T07:24:54.472Z,69440
2017-07-11T07:25:35.048Z,69408
2017-07-11T07:26:15.620Z,65600
2017-07-11T07:26:56.355Z,63904
2017-07-11T07:27:36.998Z,64256
2017-07-11T07:28:17.603Z,66816
2017-07-11T07:28:58.186Z,65216
2017-07-11T07:29:38.780Z,67232
2017-07-11T07:30:19.352Z,67680
2017-07-11T07:30:59.929Z,67072
2017-07-11T07:31:40.552Z,66848
2017-07-11T07:32:21.140Z,67584
2017-07-11T07:33:01.738Z,65728
2017-07-11T07:33:42.376Z,71488
2017-07-11T07:34:23.030Z,76192
2017-07-11T07:35:03.654Z,76032
2017-07-11T07:35:44.237Z,75712
2017-07-11T07:36:24.821Z,74592
2017-07-11T07:37:05.399Z,73024
2017-07-11T07:37:46.000Z,73120
2017-07-11T07:38:26.593Z,74144
2017-07-11T07:39:07.181Z,72160
2017-07-11T07:39:47.768Z,73120
2017-07-11T07:40:28.360Z,76992
2017-07-11T07:41:08.931Z,76768
2017-07-11T07:41:49.611Z,82112
2017-07-11T07:42:30.230Z,82496
2017-07-11T07:43:10.812Z,84064
2017-07-11T07:43:51.454Z,84704
2017-07-11T07:44:32.050Z,86656
2017-07-11T07:45:12.616Z,88288
2017-07-11T07:45:53.235Z,87968
2017-07-11T07:46:33.869Z,88320
2017-07-11T07:47:14.495Z,85856
2017-07-11T07:47:55.082Z,86720
2017-07-11T07:48:35.660Z,86848
2017-07-11T07:49:16.238Z,87776
2017-07-11T07:49:56.823Z,86560
2017-07-11T07:50:37.486Z,81696
2017-07-11T07:51:18.098Z,85984
2017-07-11T07:51:58.686Z,80992
2017-07-11T07:52:39.310Z,79904
2017-07-11T07:53:19.918Z,74016
2017-07-11T07:54:00.497Z,82976
2017-07-11T07:54:41.078Z,81280
2017-07-11T07:55:21.654Z,76256
2017-07-11T07:56:02.252Z,73312
2017-07-11T07:56:42.833Z,81568
2017-07-11T07:57:23.408Z,76384
2017-07-11T07:58:03.981Z,69536
2017-07-11T07:58:44.561Z,74272
2017-07-11T07:59:25.165Z,73056
2017-07-11T08:00:05.742Z,68352
2017-07-11T08:00:46.350Z,68320
2017-07-11T08:01:26.949Z,72736
2017-07-11T08:02:07.556Z,69760
2017-07-11T08:02:48.138Z,80480
2017-07-11T08:03:28.724Z,83040
2017-07-11T08:04:09.298Z,83072
2017-07-11T08:04:49.873Z,87232
2017-07-11T08:05:30.457Z,84160
2017-07-11T08:06:11.074Z,63712
2017-07-11T08:06:51.648Z,38272
2017-07-11T08:07:32.277Z,22304
2017-07-11T08:08:12.914Z,20672
2017-07-11T08:08:53.497Z,19936
2017-07-11T08:09:34.085Z,18880
2017-07-11T08:10:14.685Z,19168
2017-07-11T08:10:55.252Z,18848
2017-07-11T08:11:35.864Z,18016
2017-07-11T08:12:16.447Z,18304
2017-07-11T08:12:57.044Z,18656
2017-07-11T08:13:37.677Z,18368
2017-07-11T08:14:18.288Z,18304
2017-07-11T08:14:58.920Z,18336
2017-07-11T08:15:39.495Z,17824
2017-07-11T08:16:20.114Z,17536
2017-07-11T08:17:00.692Z,16128
2017-07-11T08:17:41.271Z,15780
2017-07-11T08:18:21.865Z,15704
2017-07-11T08:19:02.443Z,15560
2017-07-11T08:19:43.024Z,15220
2017-07-11T08:20:23.611Z,14292
2017-07-11T08:21:04.200Z,13676
2017-07-11T08:21:44.774Z,14324
2017-07-11T08:22:25.359Z,14240
2017-07-11T08:23:06.052Z,14176
2017-07-11T08:23:46.595Z,13956
2017-07-11T08:24:27.164Z,12880
2017-07-11T08:25:07.756Z,13204
2017-07-11T08:25:48.378Z,12580
2017-07-11T08:26:28.936Z,11944
2017-07-11T08:27:09.515Z,11980
2017-07-11T08:27:50.104Z,12100
2017-07-11T08:28:30.690Z,12412
2017-07-11T08:29:11.272Z,12620
2017-07-11T08:29:51.857Z,12696
2017-07-11T08:30:32.952Z,13040
2017-07-11T08:31:13.511Z,12932
2017-07-11T08:31:54.103Z,12140
2017-07-11T08:32:34.676Z,12640
2017-07-11T08:33:15.243Z,12536
2017-07-11T08:33:55.814Z,12016
2017-07-11T08:34:36.418Z,12592
2017-07-11T08:35:17.007Z,12724
2017-07-11T08:35:57.582Z,12508
2017-07-11T08:36:38.170Z,12828
2017-07-11T08:37:18.738Z,12812
2017-07-11T08:37:59.312Z,12240
2017-07-11T08:38:39.888Z,12256
2017-07-11T08:39:20.452Z,12516
2017-07-11T08:40:01.067Z,11884
2017-07-11T08:40:41.688Z,12456
2017-07-11T08:41:22.289Z,12284
2017-07-11T08:42:02.861Z,12024
2017-07-11T08:42:43.449Z,11572
2017-07-11T08:43:24.036Z,11064
2017-07-11T08:44:04.631Z,10908
2017-07-11T08:44:45.280Z,11444
2017-07-11T08:45:25.848Z,11616
2017-07-11T08:46:06.426Z,11688
2017-07-11T08:46:47.004Z,11804
2017-07-11T08:47:27.588Z,11820
2017-07-11T08:48:08.168Z,11664
2017-07-11T08:48:48.759Z,11532
2017-07-11T08:49:29.340Z,11544
2017-07-11T08:50:09.918Z,11584
2017-07-11T08:50:50.493Z,11620
2017-07-11T08:51:31.086Z,11612
2017-07-11T08:52:11.677Z,11408
2017-07-11T08:52:52.280Z,11184
2017-07-11T08:53:32.871Z,10984
2017-07-11T08:54:13.501Z,10536
2017-07-11T08:54:54.022Z,10336
2017-07-11T08:55:34.591Z,10240
2017-07-11T08:56:15.162Z,10016
2017-07-11T08:56:55.731Z,9724
2017-07-11T08:57:36.299Z,9812
2017-07-11T08:58:16.876Z,9808
2017-07-11T08:58:57.449Z,9992
2017-07-11T08:59:38.099Z,10224
2017-07-11T09:00:18.687Z,10392
2017-07-11T09:00:59.299Z,10264
2017-07-11T09:01:39.867Z,10584
2017-07-11T09:02:20.478Z,10692
2017-07-11T09:03:01.074Z,10340
2017-07-11T09:03:41.647Z,9940
2017-07-11T09:04:22.273Z,9684
2017-07-11T09:05:02.875Z,9260
2017-07-11T09:05:43.462Z,9460
2017-07-11T09:06:24.030Z,9264
2017-07-11T09:07:04.601Z,9148
2017-07-11T09:07:45.169Z,9460
2017-07-11T09:08:25.781Z,9488
2017-07-11T09:09:06.373Z,9644
2017-07-11T09:09:46.947Z,9504
2017-07-11T09:10:27.553Z,9144
2017-07-11T09:11:08.128Z,9844
2017-07-11T09:11:48.703Z,9836
2017-07-11T09:12:29.354Z,9784
2017-07-11T09:13:09.967Z,10044
2017-07-11T09:13:50.557Z,10176
2017-07-11T09:14:31.173Z,10836
2017-07-11T09:15:11.708Z,11084
2017-07-11T09:15:52.291Z,11212